Time;durP1;ratioP1;P1;durP2;ratioP2;P2;SDS_P1;SDS_P2;PMS_P1;PMS_P2;Temp;Humidity;BMP_temperature;BMP_pressure;BME280_temperature;BME280_humidity;BME280_pressure;Samples;Min_cycle;Max_cycle;Signal;HPM_P1;HPM_P2
2023/06/19 00:00:54;;;;;;;2.70;1.67;;;23.40;64.10;;;;;;5020062;28;20177;-20
2023/06/19 00:03:19;;;;;;;3.20;1.57;;;23.40;64.20;;;;;;5032649;28;20850;-20
2023/06/19 00:05:46;;;;;;;2.72;1.77;;;23.40;64.30;;;;;;5029724;28;20646;-19
2023/06/19 00:08:12;;;;;;;3.30;1.83;;;23.40;64.50;;;;;;5041370;28;20577;-20
2023/06/19 00:10:38;;;;;;;2.53;1.70;;;23.30;64.50;;;;;;5031279;28;20021;-20
2023/06/19 00:13:03;;;;;;;2.30;1.60;;;23.20;64.60;;;;;;5011995;28;20028;-19
2023/06/19 00:15:29;;;;;;;2.87;1.80;;;23.20;65.00;;;;;;4974033;28;20048;-20
2023/06/19 00:17:56;;;;;;;2.45;1.67;;;23.20;64.90;;;;;;5015649;28;20032;-19
2023/06/19 00:20:23;;;;;;;2.70;1.70;;;23.20;65.10;;;;;;5020437;28;20626;-19
2023/06/19 00:22:51;;;;;;;2.50;1.60;;;23.10;65.10;;;;;;5035026;28;20040;-21
2023/06/19 00:25:18;;;;;;;2.65;1.60;;;23.10;65.60;;;;;;5045649;28;20130;-20
2023/06/19 00:27:45;;;;;;;2.88;1.50;;;23.00;65.60;;;;;;5044436;28;20044;-21
2023/06/19 00:30:11;;;;;;;3.53;1.85;;;23.00;65.90;;;;;;5012666;28;20028;-20
2023/06/19 00:32:46;;;;;;;2.13;1.47;;;23.00;66.10;;;;;;5034938;28;20025;-20
2023/06/19 00:35:16;;;;;;;3.60;1.60;;;22.90;66.30;;;;;;5016188;28;20025;-21
2023/06/19 00:37:45;;;;;;;2.28;1.48;;;22.90;66.80;;;;;;5050089;28;20032;-20
2023/06/19 00:40:26;;;;;;;2.45;1.65;;;22.90;66.60;;;;;;5044224;28;20283;-20
2023/06/19 00:42:52;;;;;;;2.30;1.40;;;22.80;67.60;;;;;;5040764;28;20028;-19
2023/06/19 00:45:17;;;;;;;2.40;1.60;;;22.80;67.20;;;;;;5008633;28;20492;-20
2023/06/19 00:47:43;;;;;;;2.10;1.45;;;22.80;67.20;;;;;;5049570;28;20025;-20
2023/06/19 00:50:09;;;;;;;2.13;1.50;;;22.80;67.30;;;;;;5029480;28;20250;-21
2023/06/19 00:52:35;;;;;;;2.78;1.30;;;22.80;67.60;;;;;;5045291;28;20040;-20
2023/06/19 00:55:01;;;;;;;3.03;1.60;;;22.80;67.90;;;;;;5029617;28;20081;-19
2023/06/19 00:57:29;;;;;;;2.25;1.40;;;22.80;67.70;;;;;;5037831;28;20157;-21
2023/06/19 00:59:55;;;;;;;1.98;1.30;;;22.80;67.90;;;;;;5011684;28;20046;-22
2023/06/19 01:02:23;;;;;;;2.60;1.33;;;22.80;67.90;;;;;;5045297;28;20266;-22
2023/06/19 01:04:52;;;;;;;2.25;1.40;;;22.80;68.20;;;;;;5030793;28;20725;-23
2023/06/19 01:07:26;;;;;;;1.90;1.20;;;22.80;68.20;;;;;;5030817;28;20712;-22
2023/06/19 01:09:59;;;;;;;2.10;1.40;;;22.90;68.70;;;;;;5044295;28;20060;-23
2023/06/19 01:12:36;;;;;;;1.95;1.20;;;22.80;68.60;;;;;;5016386;28;20136;-22
2023/06/19 01:15:05;;;;;;;1.75;1.23;;;22.80;68.90;;;;;;5017265;28;20116;-22
2023/06/19 01:17:31;;;;;;;2.38;1.50;;;22.80;68.70;;;;;;5044472;28;20694;-22
2023/06/19 01:19:58;;;;;;;1.70;1.30;;;22.80;68.60;;;;;;5035643;28;20021;-22
2023/06/19 01:22:44;;;;;;;2.00;1.40;;;22.80;68.70;;;;;;5034748;28;20362;-23
2023/06/19 01:25:13;;;;;;;2.58;1.50;;;22.80;69.70;;;;;;5045642;28;20052;-23
2023/06/19 01:27:41;;;;;;;3.03;1.50;;;22.80;68.70;;;;;;5036605;28;20032;-23
2023/06/19 01:30:12;;;;;;;2.38;1.70;;;22.80;68.90;;;;;;5016778;28;20279;-23
2023/06/19 01:32:48;;;;;;;2.27;1.40;;;22.80;69.50;;;;;;5036885;28;20573;-22
2023/06/19 01:35:17;;;;;;;2.13;1.30;;;22.70;69.50;;;;;;5016248;28;20611;-23
2023/06/19 01:37:44;;;;;;;1.95;1.30;;;22.80;69.40;;;;;;5047220;28;20044;-23
2023/06/19 01:40:12;;;;;;;3.10;1.30;;;22.70;69.20;;;;;;5027241;28;20115;-23
2023/06/19 01:42:39;;;;;;;2.42;1.50;;;22.70;69.30;;;;;;5032209;28;20343;-22
2023/06/19 01:45:06;;;;;;;1.87;1.40;;;22.60;69.30;;;;;;4999360;28;20298;-23
2023/06/19 01:47:32;;;;;;;2.17;1.33;;;22.60;69.30;;;;;;5048065;28;20040;-22
2023/06/19 01:49:58;;;;;;;2.78;1.30;;;22.60;69.50;;;;;;5027462;28;20453;-20
2023/06/19 01:52:25;;;;;;;2.73;1.50;;;22.50;69.40;;;;;;5046216;28;20020;-22
2023/06/19 01:54:51;;;;;;;2.67;1.60;;;22.50;69.90;;;;;;5034768;28;20839;-23
2023/06/19 01:57:16;;;;;;;2.42;1.55;;;22.50;69.90;;;;;;5051035;28;20052;-22
2023/06/19 01:59:42;;;;;;;2.38;1.40;;;22.50;70.10;;;;;;5040128;28;20008;-22
2023/06/19 02:02:08;;;;;;;2.23;1.60;;;22.40;70.90;;;;;;5013198;28;20302;-23
2023/06/19 02:04:34;;;;;;;2.75;1.50;;;22.40;70.40;;;;;;5047195;28;20060;-22
2023/06/19 02:06:59;;;;;;;1.70;1.27;;;22.40;70.50;;;;;;5029794;28;20189;-23
2023/06/19 02:09:25;;;;;;;2.90;1.50;;;22.40;70.60;;;;;;5044672;28;20484;-23
2023/06/19 02:11:50;;;;;;;2.90;1.57;;;22.40;70.80;;;;;;5047943;28;20023;-22
2023/06/19 02:14:17;;;;;;;2.08;1.33;;;22.40;70.80;;;;;;5041030;28;20027;-23
2023/06/19 02:16:43;;;;;;;1.87;1.53;;;22.40;70.90;;;;;;5013771;28;20024;-23
2023/06/19 02:19:11;;;;;;;2.03;1.50;;;22.40;70.90;;;;;;5047997;28;20025;-22
2023/06/19 02:21:38;;;;;;;2.72;1.33;;;22.40;71.30;;;;;;5024181;28;20043;-22
2023/06/19 02:24:04;;;;;;;2.10;1.70;;;22.40;71.00;;;;;;5045844;28;20119;-22
2023/06/19 02:26:30;;;;;;;2.45;1.70;;;22.50;71.30;;;;;;5045663;28;20430;-23
2023/06/19 02:28:56;;;;;;;2.33;1.53;;;22.40;71.30;;;;;;5042705;28;20032;-22
2023/06/19 02:31:22;;;;;;;2.30;1.40;;;22.50;71.30;;;;;;5038283;28;20079;-23
2023/06/19 02:33:48;;;;;;;3.38;1.50;;;22.50;71.30;;;;;;5000133;28;20029;-22
2023/06/19 02:36:19;;;;;;;2.20;1.60;;;22.50;71.50;;;;;;5032409;28;20157;-23
2023/06/19 02:38:48;;;;;;;2.37;1.67;;;22.50;71.40;;;;;;5010532;28;20049;-22
2023/06/19 02:41:15;;;;;;;2.50;1.60;;;22.50;71.80;;;;;;5024366;28;20237;-22
2023/06/19 02:43:42;;;;;;;3.05;1.83;;;22.50;71.70;;;;;;5029810;28;20025;-23
2023/06/19 02:46:08;;;;;;;2.65;1.58;;;22.50;71.60;;;;;;5017199;28;20669;-23
2023/06/19 02:48:34;;;;;;;2.28;1.50;;;22.50;71.60;;;;;;4997043;28;20029;-22
2023/06/19 02:51:00;;;;;;;2.57;1.73;;;22.50;71.70;;;;;;5024408;28;20537;-21
2023/06/19 02:53:26;;;;;;;2.47;1.80;;;22.50;71.90;;;;;;5011350;28;20540;-20
2023/06/19 02:55:51;;;;;;;2.67;1.50;;;22.50;71.90;;;;;;5023842;28;20621;-19
2023/06/19 02:58:17;;;;;;;2.50;1.60;;;22.50;71.90;;;;;;5027550;28;20025;-20
2023/06/19 03:00:44;;;;;;;2.27;1.67;;;22.50;72.00;;;;;;5029007;28;21404;-20
2023/06/19 03:03:10;;;;;;;2.28;1.52;;;22.50;72.10;;;;;;4984258;28;20394;-20
2023/06/19 03:05:35;;;;;;;3.47;1.77;;;22.60;72.20;;;;;;5028625;28;20046;-20
2023/06/19 03:08:01;;;;;;;2.50;1.70;;;22.60;72.20;;;;;;5013658;28;20071;-19
2023/06/19 03:10:27;;;;;;;2.35;1.60;;;22.60;72.20;;;;;;5027279;28;20021;-20
2023/06/19 03:12:52;;;;;;;2.87;1.80;;;22.60;72.20;;;;;;5024951;28;20048;-21
2023/06/19 03:15:18;;;;;;;2.05;1.63;;;22.60;72.20;;;;;;5016895;28;20021;-20
2023/06/19 03:17:44;;;;;;;2.67;1.70;;;22.60;73.00;;;;;;5018308;28;20068;-21
2023/06/19 03:20:11;;;;;;;2.65;1.90;;;22.60;72.30;;;;;;5005225;28;20013;-20
2023/06/19 03:22:40;;;;;;;2.33;1.40;;;22.60;72.30;;;;;;5028654;28;20029;-20
2023/06/19 03:25:07;;;;;;;2.90;1.75;;;22.60;72.50;;;;;;5014204;28;20285;-21
2023/06/19 03:27:33;;;;;;;2.47;1.77;;;22.60;72.40;;;;;;5027567;28;20028;-20
2023/06/19 03:29:58;;;;;;;2.15;1.58;;;22.60;72.60;;;;;;5025065;28;20249;-20
2023/06/19 03:32:24;;;;;;;1.90;1.70;;;22.60;72.50;;;;;;5028365;28;20029;-22
2023/06/19 03:34:50;;;;;;;4.57;1.77;;;22.60;72.60;;;;;;4993076;28;20059;-22
2023/06/19 03:37:16;;;;;;;4.57;1.83;;;22.50;72.70;;;;;;5027059;28;20048;-22
2023/06/19 03:39:42;;;;;;;3.60;1.77;;;22.50;72.60;;;;;;5013193;28;20037;-22
2023/06/19 03:42:08;;;;;;;3.40;1.80;;;22.50;72.70;;;;;;5023552;28;20404;-23
2023/06/19 03:44:34;;;;;;;2.63;1.60;;;22.50;72.90;;;;;;5025002;28;20164;-23
2023/06/19 03:46:59;;;;;;;2.67;1.70;;;22.50;72.90;;;;;;5026193;28;20029;-22
2023/06/19 03:49:25;;;;;;;2.63;1.70;;;22.50;72.90;;;;;;4995900;28;20545;-23
2023/06/19 03:51:52;;;;;;;2.27;1.87;;;22.50;72.90;;;;;;5025160;28;20449;-23
2023/06/19 03:54:17;;;;;;;2.40;1.70;;;22.50;73.00;;;;;;4999002;28;20056;-22
2023/06/19 03:56:43;;;;;;;2.47;1.80;;;22.50;73.00;;;;;;5022187;28;20025;-22
2023/06/19 03:59:09;;;;;;;3.53;1.90;;;22.50;72.90;;;;;;5023194;28;20161;-22
2023/06/19 04:01:34;;;;;;;3.37;1.93;;;22.50;72.90;;;;;;5028182;28;20056;-22
2023/06/19 04:04:00;;;;;;;3.40;1.80;;;22.50;73.10;;;;;;5024841;28;20052;-21
2023/06/19 04:06:26;;;;;;;3.00;1.80;;;22.50;73.10;;;;;;4992734;28;20756;-19
2023/06/19 04:08:52;;;;;;;2.75;1.77;;;22.50;72.90;;;;;;5036366;28;20037;-20
2023/06/19 04:11:18;;;;;;;3.95;1.83;;;22.50;72.80;;;;;;5012593;28;20028;-20
2023/06/19 04:13:43;;;;;;;2.40;1.70;;;22.50;72.90;;;;;;5028002;28;20055;-20
2023/06/19 04:16:09;;;;;;;2.53;1.70;;;22.50;72.90;;;;;;5029114;28;20025;-20
2023/06/19 04:18:35;;;;;;;2.33;1.70;;;22.50;72.90;;;;;;5019291;28;20398;-21
2023/06/19 04:21:01;;;;;;;3.08;1.90;;;22.50;72.90;;;;;;4996636;28;20400;-20
2023/06/19 04:23:26;;;;;;;2.27;1.70;;;22.40;72.90;;;;;;5035327;28;20333;-19
2023/06/19 04:25:52;;;;;;;2.42;1.40;;;22.40;72.80;;;;;;5016502;28;20071;-20
2023/06/19 04:28:18;;;;;;;2.03;1.60;;;22.40;72.90;;;;;;5026952;28;20041;-21
2023/06/19 04:30:44;;;;;;;1.90;1.50;;;22.40;72.90;;;;;;5028708;28;20025;-20
2023/06/19 04:33:09;;;;;;;2.63;1.50;;;22.40;72.90;;;;;;5027834;28;20041;-21
2023/06/19 04:35:39;;;;;;;3.20;1.70;;;22.40;72.80;;;;;;4989448;28;20447;-19
2023/06/19 04:38:06;;;;;;;2.28;1.60;;;22.40;72.70;;;;;;5018244;28;20045;-21
2023/06/19 04:40:32;;;;;;;2.35;1.50;;;22.40;72.70;;;;;;5010584;28;20047;-21
2023/06/19 04:42:59;;;;;;;2.53;1.57;;;22.40;72.60;;;;;;5031910;28;20065;-19
2023/06/19 04:45:25;;;;;;;1.97;1.50;;;22.40;72.70;;;;;;5026983;28;20279;-19
2023/06/19 04:47:51;;;;;;;2.38;1.70;;;22.40;72.60;;;;;;5030979;28;20441;-19
2023/06/19 04:50:16;;;;;;;1.92;1.48;;;22.40;72.40;;;;;;5034172;28;20111;-19
2023/06/19 04:52:42;;;;;;;2.27;1.50;;;22.40;72.40;;;;;;4994694;28;20115;-19
2023/06/19 04:55:11;;;;;;;2.30;1.50;;;22.40;72.30;;;;;;5025361;28;20514;-19
2023/06/19 04:57:37;;;;;;;2.88;1.40;;;22.40;72.30;;;;;;5021494;28;20047;-20
2023/06/19 05:00:06;;;;;;;2.30;1.60;;;22.40;73.10;;;;;;5025595;28;20033;-20
2023/06/19 05:02:33;;;;;;;1.70;1.60;;;22.40;72.20;;;;;;5011018;28;20500;-20
2023/06/19 05:05:03;;;;;;;2.15;1.63;;;22.40;72.10;;;;;;5028362;28;20258;-19
2023/06/19 05:07:32;;;;;;;2.83;1.57;;;22.40;72.10;;;;;;4996593;28;20119;-20
2023/06/19 05:09:58;;;;;;;3.15;1.70;;;22.40;72.10;;;;;;5025447;28;20068;-19
2023/06/19 05:12:24;;;;;;;2.75;1.50;;;22.40;71.90;;;;;;5013403;28;20060;-20
2023/06/19 05:14:50;;;;;;;2.13;1.60;;;22.40;71.90;;;;;;5025929;28;20076;-20
2023/06/19 05:17:16;;;;;;;2.90;1.80;;;22.40;71.90;;;;;;5028770;28;20028;-20
2023/06/19 05:19:42;;;;;;;3.83;1.73;;;22.40;71.90;;;;;;5027471;28;20386;-20
2023/06/19 05:22:08;;;;;;;3.20;1.83;;;22.30;71.80;;;;;;5030096;28;20025;-20
2023/06/19 05:24:33;;;;;;;3.30;1.93;;;22.30;71.80;;;;;;4995083;28;20029;-20
2023/06/19 05:26:59;;;;;;;4.35;2.10;;;22.30;71.80;;;;;;5010077;28;20233;-20
2023/06/19 05:29:25;;;;;;;3.10;2.00;;;22.30;71.80;;;;;;5031779;28;20029;-21
2023/06/19 05:31:51;;;;;;;2.72;2.10;;;22.30;71.80;;;;;;5032308;28;20037;-21
2023/06/19 05:34:17;;;;;;;3.33;1.90;;;22.20;71.80;;;;;;5035618;28;20064;-20
2023/06/19 05:36:45;;;;;;;3.63;2.10;;;22.30;71.90;;;;;;5023811;28;20044;-19
2023/06/19 05:39:10;;;;;;;3.33;2.10;;;22.30;71.90;;;;;;5010436;28;20143;-20
2023/06/19 05:41:36;;;;;;;3.95;2.03;;;22.20;71.90;;;;;;5038901;28;20103;-19
2023/06/19 05:44:02;;;;;;;3.72;2.28;;;22.20;71.90;;;;;;5046275;28;20209;-20
2023/06/19 05:46:28;;;;;;;3.03;2.10;;;22.20;71.90;;;;;;5014249;28;20493;-23
2023/06/19 05:48:54;;;;;;;3.72;2.20;;;22.20;71.90;;;;;;5047221;28;20134;-22
2023/06/19 05:51:20;;;;;;;2.97;2.20;;;22.30;72.10;;;;;;5035097;28;20024;-22
2023/06/19 05:53:46;;;;;;;3.58;2.38;;;22.30;72.10;;;;;;5045956;28;20063;-23
2023/06/19 05:56:12;;;;;;;4.38;2.47;;;22.30;72.10;;;;;;4992655;28;20749;-23
2023/06/19 05:58:39;;;;;;;4.00;2.50;;;22.30;71.90;;;;;;5029245;28;20021;-23
2023/06/19 06:01:05;;;;;;;3.80;2.43;;;22.40;71.90;;;;;;5035290;28;20115;-23
2023/06/19 06:03:31;;;;;;;3.92;2.80;;;22.40;71.90;;;;;;5047054;28;20055;-23
2023/06/19 06:06:02;;;;;;;4.75;2.75;;;22.30;71.80;;;;;;5031381;28;21040;-22
2023/06/19 06:08:29;;;;;;;4.32;2.70;;;22.40;71.90;;;;;;5045489;28;20116;-21
2023/06/19 06:10:55;;;;;;;5.28;3.05;;;22.40;72.10;;;;;;4993126;28;20039;-23
2023/06/19 06:13:20;;;;;;;5.87;2.97;;;22.40;71.90;;;;;;5032914;28;21413;-22
2023/06/19 06:15:46;;;;;;;4.53;2.90;;;22.40;71.80;;;;;;5046422;28;20039;-22
2023/06/19 06:18:12;;;;;;;3.33;2.60;;;22.40;71.60;;;;;;5044666;28;20263;-23
2023/06/19 06:20:38;;;;;;;6.78;3.00;;;22.40;71.60;;;;;;5030689;28;20067;-23
2023/06/19 06:23:04;;;;;;;4.73;2.90;;;22.40;71.50;;;;;;5032386;28;20100;-23
2023/06/19 06:25:29;;;;;;;5.85;2.97;;;22.40;71.60;;;;;;5009935;28;20016;-23
2023/06/19 06:27:55;;;;;;;4.03;3.10;;;22.40;71.60;;;;;;5048719;28;20100;-22
2023/06/19 06:30:22;;;;;;;5.38;2.92;;;22.40;71.60;;;;;;5033584;28;20154;-23
2023/06/19 06:32:48;;;;;;;5.75;3.03;;;22.40;71.70;;;;;;5048011;28;20029;-23
2023/06/19 06:35:14;;;;;;;4.67;3.40;;;22.40;71.70;;;;;;5042109;28;20162;-23
2023/06/19 06:37:40;;;;;;;4.55;3.20;;;22.40;71.60;;;;;;5035168;28;20462;-22
2023/06/19 06:40:10;;;;;;;4.57;3.13;;;22.50;71.70;;;;;;5031372;28;20048;-22
2023/06/19 06:42:37;;;;;;;7.70;3.40;;;22.50;71.80;;;;;;5009605;28;20032;-23
2023/06/19 06:45:06;;;;;;;4.40;3.27;;;22.50;71.70;;;;;;5031288;28;20500;-23
2023/06/19 06:47:33;;;;;;;3.80;2.95;;;22.60;71.60;;;;;;5030579;28;20032;-22
2023/06/19 06:49:58;;;;;;;4.57;2.88;;;22.60;71.50;;;;;;5044910;28;20056;-23
2023/06/19 06:52:24;;;;;;;5.20;3.10;;;22.70;71.50;;;;;;5036142;28;20429;-23
2023/06/19 06:54:50;;;;;;;4.00;3.15;;;22.70;71.40;;;;;;5039212;28;20163;-23
2023/06/19 06:57:16;;;;;;;4.70;3.40;;;22.70;71.20;;;;;;4997961;28;20025;-23
2023/06/19 06:59:42;;;;;;;5.40;3.23;;;22.80;70.70;;;;;;5035628;28;20032;-22
2023/06/19 07:02:08;;;;;;;4.03;3.05;;;22.80;70.50;;;;;;5044776;28;20596;-23
2023/06/19 07:04:33;;;;;;;4.43;3.35;;;22.80;70.30;;;;;;5018104;28;20446;-23
2023/06/19 07:06:59;;;;;;;4.13;3.10;;;22.70;70.20;;;;;;5044344;28;20235;-22
2023/06/19 07:09:25;;;;;;;3.67;2.90;;;22.70;71.10;;;;;;5032380;28;21716;-23
2023/06/19 07:11:50;;;;;;;5.77;3.53;;;22.70;70.10;;;;;;5027041;28;20220;-20
2023/06/19 07:14:19;;;;;;;4.57;3.13;;;22.80;70.00;;;;;;5012343;28;20465;-21
2023/06/19 07:16:45;;;;;;;5.53;3.20;;;22.70;70.00;;;;;;5028859;28;20102;-19
2023/06/19 07:19:12;;;;;;;5.10;3.13;;;22.70;70.10;;;;;;5028061;28;20041;-20
2023/06/19 07:21:38;;;;;;;4.50;3.60;;;22.80;70.40;;;;;;5025754;28;20028;-19
2023/06/19 07:24:05;;;;;;;4.85;3.80;;;22.80;70.40;;;;;;5016626;28;20244;-20
2023/06/19 07:26:31;;;;;;;6.05;4.13;;;22.90;70.50;;;;;;5033893;28;20076;-20
2023/06/19 07:28:57;;;;;;;4.97;3.63;;;22.90;70.50;;;;;;4997128;28;20734;-20
2023/06/19 07:31:22;;;;;;;6.57;4.25;;;23.00;70.50;;;;;;5044733;28;20028;-20
2023/06/19 07:33:48;;;;;;;5.55;3.90;;;23.10;70.50;;;;;;5030002;28;20177;-20
2023/06/19 07:36:15;;;;;;;5.83;3.80;;;23.20;70.50;;;;;;5047596;28;20701;-19
2023/06/19 07:38:43;;;;;;;6.60;4.05;;;23.20;70.40;;;;;;5034890;28;20091;-20
2023/06/19 07:41:10;;;;;;;5.20;4.00;;;23.30;70.30;;;;;;5017386;28;20052;-19
2023/06/19 07:43:37;;;;;;;6.97;4.00;;;23.40;70.30;;;;;;5017507;28;20504;-19
2023/06/19 07:46:03;;;;;;;5.88;4.07;;;23.40;70.30;;;;;;5010379;28;20787;-19
2023/06/19 07:48:29;;;;;;;7.45;4.07;;;23.60;70.40;;;;;;5029177;28;20133;-19
2023/06/19 07:50:55;;;;;;;7.00;4.32;;;23.70;70.20;;;;;;5042092;28;20122;-20
2023/06/19 07:53:21;;;;;;;5.38;3.90;;;23.80;70.10;;;;;;5038143;28;20028;-21
2023/06/19 07:55:47;;;;;;;5.53;4.00;;;23.90;70.00;;;;;;5034062;28;20033;-20
2023/06/19 07:58:13;;;;;;;5.30;4.20;;;24.00;69.70;;;;;;5047441;28;20082;-20
2023/06/19 08:00:38;;;;;;;5.38;4.25;;;24.10;69.50;;;;;;5004342;28;20495;-20
2023/06/19 08:03:05;;;;;;;6.40;4.20;;;24.20;69.30;;;;;;5028215;28;20247;-20
2023/06/19 08:05:30;;;;;;;5.75;4.13;;;24.30;69.10;;;;;;5028033;28;20025;-20
2023/06/19 08:07:58;;;;;;;5.10;4.07;;;24.30;68.80;;;;;;5024562;28;20184;-20
2023/06/19 08:10:24;;;;;;;5.45;4.10;;;24.30;68.70;;;;;;5027626;28;20694;-19
2023/06/19 08:12:50;;;;;;;5.03;3.63;;;24.40;68.30;;;;;;5043170;28;20044;-19
2023/06/19 08:15:15;;;;;;;5.37;3.50;;;24.30;67.90;;;;;;5010687;28;20037;-19
2023/06/19 08:17:41;;;;;;;4.72;3.60;;;24.40;67.90;;;;;;5033677;28;20040;-19
2023/06/19 08:20:08;;;;;;;5.47;3.40;;;24.50;68.90;;;;;;5027252;28;20040;-19
2023/06/19 08:22:34;;;;;;;5.25;3.33;;;24.60;69.30;;;;;;5046871;28;20017;-20
2023/06/19 08:25:00;;;;;;;4.97;3.63;;;24.80;69.80;;;;;;5035534;28;20269;-20
2023/06/19 08:27:26;;;;;;;5.32;3.60;;;25.10;70.40;;;;;;5030393;28;20067;-20
2023/06/19 08:29:51;;;;;;;5.53;3.97;;;25.40;70.40;;;;;;5003421;28;20270;-21
2023/06/19 08:32:17;;;;;;;6.70;4.13;;;25.70;70.20;;;;;;5032812;28;20067;-19
2023/06/19 08:34:43;;;;;;;5.33;4.37;;;26.10;69.70;;;;;;5013192;28;20044;-20
2023/06/19 08:37:09;;;;;;;5.97;4.28;;;26.40;69.10;;;;;;5044081;28;20036;-20
2023/06/19 08:39:39;;;;;;;7.20;4.67;;;26.70;68.60;;;;;;5020544;28;20382;-20
2023/06/19 08:42:07;;;;;;;6.35;4.30;;;26.90;67.90;;;;;;5024752;28;20302;-20
2023/06/19 08:44:34;;;;;;;6.60;4.63;;;27.20;68.00;;;;;;5048040;28;20025;-22
2023/06/19 08:47:01;;;;;;;6.18;4.72;;;27.40;67.10;;;;;;5011299;28;20587;-20
2023/06/19 08:49:30;;;;;;;6.97;4.50;;;27.70;66.40;;;;;;5048390;28;20033;-22
2023/06/19 08:51:56;;;;;;;5.43;4.60;;;27.90;65.40;;;;;;5032587;28;20329;-23
2023/06/19 08:54:22;;;;;;;4.93;4.30;;;28.10;66.00;;;;;;5046427;28;20454;-23
2023/06/19 08:56:48;;;;;;;4.88;3.95;;;28.40;66.20;;;;;;5033528;28;20036;-22
2023/06/19 08:59:16;;;;;;;7.00;4.40;;;28.60;65.60;;;;;;5054234;28;20031;-24
2023/06/19 09:01:53;;;;;;;6.00;4.10;;;28.80;64.10;;;;;;5021591;28;20108;-24
2023/06/19 09:04:21;;;;;;;5.85;4.18;;;29.00;62.40;;;;;;5032972;28;20035;-20
2023/06/19 09:06:52;;;;;;;5.40;4.18;;;29.10;63.40;;;;;;5018264;28;20054;-21
2023/06/19 09:09:20;;;;;;;7.00;4.70;;;29.40;64.20;;;;;;5048689;28;20040;-20
2023/06/19 09:12:00;;;;;;;5.35;4.05;;;29.50;62.40;;;;;;5021202;28;20040;-20
2023/06/19 09:14:36;;;;;;;5.33;4.13;;;29.70;60.60;;;;;;5048940;28;20124;-20
2023/06/19 09:17:09;;;;;;;5.95;3.92;;;29.80;60.20;;;;;;5011278;28;20028;-20
2023/06/19 09:19:35;;;;;;;4.80;3.97;;;30.00;60.40;;;;;;5034247;28;20036;-19
2023/06/19 09:22:02;;;;;;;5.43;4.25;;;30.10;61.20;;;;;;5016973;28;20721;-21
2023/06/19 09:24:39;;;;;;;6.03;4.20;;;30.10;59.10;;;;;;5039591;28;20025;-24
2023/06/19 09:27:14;;;;;;;5.47;4.22;;;30.10;57.50;;;;;;5028652;28;20063;-22
2023/06/19 09:29:41;;;;;;;5.72;3.92;;;30.00;57.60;;;;;;5047252;28;20081;-25
2023/06/19 09:32:24;;;;;;;5.38;4.03;;;29.90;59.00;;;;;;5048618;28;20491;-24
2023/06/19 09:34:52;;;;;;;4.47;3.83;;;30.00;56.40;;;;;;4993869;28;20332;-22
2023/06/19 09:37:24;;;;;;;5.20;4.23;;;30.00;59.10;;;;;;5031223;28;20060;-23
2023/06/19 09:39:58;;;;;;;5.15;4.03;;;30.00;57.60;;;;;;5031403;28;20145;-22
2023/06/19 09:42:33;;;;;;;5.25;3.85;;;30.10;57.60;;;;;;5048340;28;20116;-23
2023/06/19 09:45:01;;;;;;;5.38;3.97;;;30.20;57.60;;;;;;5021860;28;20236;-21
2023/06/19 09:47:32;;;;;;;4.80;4.30;;;30.20;58.10;;;;;;5048970;28;20586;-23
2023/06/19 09:49:57;;;;;;;5.10;3.60;;;30.40;57.40;;;;;;5021996;28;20286;-25
2023/06/19 09:52:24;;;;;;;5.78;3.58;;;30.40;57.40;;;;;;5030510;28;20661;-22
2023/06/19 09:54:51;;;;;;;4.90;3.50;;;30.40;57.00;;;;;;5032522;28;20024;-25
2023/06/19 09:57:17;;;;;;;4.68;3.80;;;30.40;56.90;;;;;;5044073;28;20174;-22
2023/06/19 09:59:45;;;;;;;5.70;3.90;;;30.50;56.00;;;;;;5022358;28;20111;-22
2023/06/19 10:02:12;;;;;;;6.05;3.60;;;30.40;55.20;;;;;;5045379;28;20068;-23
2023/06/19 10:04:46;;;;;;;4.60;3.53;;;30.20;55.00;;;;;;5014051;28;20046;-22
2023/06/19 10:07:17;;;;;;;4.82;3.30;;;30.00;55.00;;;;;;5030924;28;20112;-23
2023/06/19 10:09:54;;;;;;;5.07;3.67;;;29.90;54.70;;;;;;5048219;28;20032;-22
2023/06/19 10:12:19;;;;;;;4.73;3.50;;;29.70;55.10;;;;;;5047132;28;20107;-23
2023/06/19 10:14:48;;;;;;;4.18;3.38;;;29.60;55.50;;;;;;5036952;28;20032;-29
2023/06/19 10:17:17;;;;;;;4.45;3.20;;;29.60;55.80;;;;;;5033936;28;20701;-22
2023/06/19 10:19:50;;;;;;;4.27;3.30;;;29.60;55.90;;;;;;4993652;28;20040;-23
2023/06/19 10:22:22;;;;;;;3.75;3.10;;;29.60;55.70;;;;;;5030911;28;20041;-25
2023/06/19 10:24:51;;;;;;;3.97;3.30;;;29.70;55.60;;;;;;5048158;28;20036;-22
2023/06/19 10:27:24;;;;;;;4.43;3.00;;;29.80;55.40;;;;;;5046791;28;20993;-22
2023/06/19 10:29:57;;;;;;;4.55;3.30;;;29.90;55.40;;;;;;5037743;28;20128;-24
2023/06/19 10:32:23;;;;;;;4.80;3.43;;;30.00;56.20;;;;;;5020772;28;20028;-22
2023/06/19 10:34:49;;;;;;;5.18;3.25;;;30.20;57.20;;;;;;5045605;28;20028;-24
2023/06/19 10:37:15;;;;;;;4.72;3.28;;;30.50;57.30;;;;;;4976692;28;20770;-22
2023/06/19 10:39:42;;;;;;;4.90;3.50;;;30.90;56.90;;;;;;5048036;28;20052;-22
2023/06/19 10:42:09;;;;;;;4.38;2.95;;;31.20;56.20;;;;;;5045170;28;20033;-23
2023/06/19 10:44:36;;;;;;;5.32;3.33;;;31.50;55.70;;;;;;5047480;28;20028;-22
2023/06/19 10:47:03;;;;;;;5.13;3.03;;;31.70;54.90;;;;;;5019821;28;20044;-22
2023/06/19 10:49:28;;;;;;;3.70;3.08;;;31.90;54.20;;;;;;5045864;28;20032;-23
2023/06/19 10:51:58;;;;;;;4.00;3.27;;;32.00;53.70;;;;;;5007242;28;20321;-21
2023/06/19 10:54:25;;;;;;;4.00;3.03;;;32.10;53.80;;;;;;5020722;28;21701;-23
2023/06/19 10:56:51;;;;;;;4.72;3.35;;;32.20;53.70;;;;;;5043072;28;20097;-22
2023/06/19 10:59:18;;;;;;;3.53;3.13;;;32.50;53.70;;;;;;5047645;28;20037;-22
2023/06/19 11:01:44;;;;;;;4.50;3.40;;;32.60;53.30;;;;;;5033742;28;20112;-22
2023/06/19 11:04:11;;;;;;;3.50;2.85;;;32.80;53.30;;;;;;5044557;28;20084;-24
2023/06/19 11:06:39;;;;;;;5.70;3.35;;;33.10;52.90;;;;;;5007892;28;20053;-23
2023/06/19 11:09:07;;;;;;;4.33;3.13;;;33.30;52.70;;;;;;5014185;28;20035;-22
2023/06/19 11:11:41;;;;;;;5.45;3.20;;;33.50;51.70;;;;;;5046387;28;20024;-25
2023/06/19 11:14:09;;;;;;;3.45;2.90;;;33.60;50.20;;;;;;5022820;28;20039;-23
2023/06/19 11:16:37;;;;;;;5.03;3.33;;;33.70;51.50;;;;;;5041949;28;20351;-23
2023/06/19 11:19:03;;;;;;;4.95;3.10;;;33.90;51.50;;;;;;5039848;28;20277;-23
2023/06/19 11:21:37;;;;;;;3.93;3.50;;;34.20;51.40;;;;;;5024328;28;20509;-24
2023/06/19 11:24:05;;;;;;;4.15;3.10;;;34.40;50.70;;;;;;5020127;28;20032;-22
2023/06/19 11:26:36;;;;;;;5.32;3.13;;;34.80;51.10;;;;;;5024078;28;20276;-24
2023/06/19 11:29:03;;;;;;;3.97;3.30;;;34.90;48.90;;;;;;5039102;28;20143;-23
2023/06/19 11:31:28;;;;;;;4.22;3.20;;;35.00;49.30;;;;;;5031027;28;20075;-25
2023/06/19 11:34:03;;;;;;;4.50;3.27;;;35.20;48.90;;;;;;5035261;28;20103;-23
2023/06/19 11:36:29;;;;;;;3.38;2.90;;;35.20;47.10;;;;;;5038848;28;20036;-23
2023/06/19 11:38:55;;;;;;;3.90;3.30;;;35.40;48.10;;;;;;5005856;28;20037;-23
2023/06/19 11:41:28;;;;;;;4.03;2.90;;;35.50;47.80;;;;;;5047961;28;20033;-23
2023/06/19 11:44:11;;;;;;;3.92;2.90;;;35.50;46.20;;;;;;5043139;28;20201;-25
2023/06/19 11:46:37;;;;;;;5.40;3.35;;;35.60;45.70;;;;;;5037107;28;20037;-23
2023/06/19 11:49:13;;;;;;;4.95;3.33;;;35.60;46.40;;;;;;5034195;28;20032;-22
2023/06/19 11:51:39;;;;;;;5.03;3.67;;;35.70;45.00;;;;;;5036898;28;20586;-23
2023/06/19 11:54:09;;;;;;;4.67;3.30;;;35.70;46.70;;;;;;5010234;28;20107;-22
2023/06/19 11:56:39;;;;;;;4.10;3.13;;;35.70;45.40;;;;;;5032428;28;20376;-22
2023/06/19 11:59:05;;;;;;;5.00;3.50;;;35.80;46.20;;;;;;5048190;28;20060;-24
2023/06/19 12:01:32;;;;;;;4.07;3.20;;;35.90;45.70;;;;;;5036454;28;20210;-23
2023/06/19 12:03:59;;;;;;;6.27;3.20;;;36.00;45.00;;;;;;5050287;28;20073;-23
2023/06/19 12:06:24;;;;;;;3.72;2.95;;;36.20;44.70;;;;;;5032850;28;20255;-24
2023/06/19 12:08:50;;;;;;;3.90;2.95;;;36.20;44.10;;;;;;4996093;28;20033;-23
2023/06/19 12:11:16;;;;;;;4.70;2.72;;;36.20;43.90;;;;;;5016059;28;20033;-24
2023/06/19 12:13:42;;;;;;;4.57;3.10;;;36.30;43.70;;;;;;5046057;28;20191;-22
2023/06/19 12:16:11;;;;;;;4.25;2.72;;;36.30;43.50;;;;;;5038311;28;20467;-21
2023/06/19 12:18:37;;;;;;;3.92;3.10;;;36.40;43.20;;;;;;5046426;28;20020;-23
2023/06/19 12:21:03;;;;;;;3.87;3.23;;;36.50;43.00;;;;;;5041142;28;20031;-22
2023/06/19 12:23:29;;;;;;;3.73;3.00;;;36.60;43.10;;;;;;5049757;28;20602;-23
2023/06/19 12:25:56;;;;;;;4.18;3.20;;;36.80;42.60;;;;;;5012777;28;20091;-22
2023/06/19 12:28:21;;;;;;;3.58;3.00;;;36.90;42.10;;;;;;5035617;28;20032;-24
2023/06/19 12:30:51;;;;;;;3.90;3.20;;;37.10;41.90;;;;;;5055431;28;20370;-24
2023/06/19 12:33:17;;;;;;;4.33;3.20;;;37.20;41.70;;;;;;5043127;28;20028;-23
2023/06/19 12:35:44;;;;;;;4.10;3.00;;;37.30;41.60;;;;;;5051851;28;20054;-22
2023/06/19 12:38:10;;;;;;;4.63;3.30;;;37.40;41.40;;;;;;5040973;28;20041;-23
2023/06/19 12:40:39;;;;;;;4.63;3.45;;;37.50;41.20;;;;;;4999909;28;20548;-22
2023/06/19 12:43:05;;;;;;;4.68;3.75;;;37.60;39.90;;;;;;5037741;28;20025;-22
2023/06/19 12:45:31;;;;;;;4.00;3.27;;;37.70;40.50;;;;;;5048038;28;20439;-23
2023/06/19 12:47:57;;;;;;;5.10;3.60;;;37.80;40.40;;;;;;5045536;28;20054;-22